Time;durP1;ratioP1;P1;durP2;ratioP2;P2;SDS_P1;SDS_P2;PMS_P1;PMS_P2;Temp;Humidity;BMP_temperature;BMP_pressure;BME280_temperature;BME280_humidity;BME280_pressure;Samples;Min_cycle;Max_cycle;Signal;HPM_P1;HPM_P2
2023/02/22 00:01:34;;;;;;;29.38;23.27;;;;;;;3.02;99.94;95721.38;5095609;28;20028;-67
2023/02/22 00:04:01;;;;;;;34.17;24.63;;;;;;;3.04;100.00;95727.31;5093496;28;20024;-63
2023/02/22 00:06:27;;;;;;;29.50;23.75;;;;;;;3.05;100.00;95725.53;5075570;28;20016;-60
2023/02/22 00:08:52;;;;;;;25.50;20.40;;;;;;;3.05;100.00;95726.38;5096545;28;20024;-61
2023/02/22 00:11:19;;;;;;;30.27;21.42;;;;;;;3.06;100.00;95729.81;5092763;28;20045;-61
2023/02/22 00:13:45;;;;;;;28.08;22.30;;;;;;;3.06;100.00;95727.19;5092672;28;20401;-61
2023/02/22 00:16:21;;;;;;;32.78;22.52;;;;;;;3.02;100.00;95726.56;5098503;28;20036;-61
2023/02/22 00:18:48;;;;;;;31.15;23.48;;;;;;;2.98;100.00;95732.88;5093115;28;20032;-61
2023/02/22 00:21:15;;;;;;;28.27;21.10;;;;;;;2.94;100.00;95728.78;5098199;28;20055;-61
2023/02/22 00:23:45;;;;;;;34.05;24.55;;;;;;;2.91;100.00;95731.59;5093489;28;20502;-68
2023/02/22 00:26:12;;;;;;;45.22;37.95;;;;;;;2.94;100.00;95724.44;5093799;28;20453;-66
2023/02/22 00:28:38;;;;;;;44.72;37.67;;;;;;;2.95;100.00;95717.47;5094476;28;20027;-65
2023/02/22 00:31:05;;;;;;;40.95;32.38;;;;;;;2.87;100.00;95717.94;5096531;28;20388;-66
2023/02/22 00:33:31;;;;;;;38.20;30.63;;;;;;;2.82;100.00;95718.22;5094742;28;20102;-66
2023/02/22 00:35:56;;;;;;;40.97;32.85;;;;;;;2.78;100.00;95719.34;5110343;28;20123;-65
2023/02/22 00:38:22;;;;;;;37.95;31.63;;;;;;;2.77;100.00;95712.47;5116093;27;20023;-66
2023/02/22 00:40:47;;;;;;;45.65;35.72;;;;;;;2.70;100.00;95717.22;5117302;27;20019;-66
2023/02/22 00:43:13;;;;;;;45.60;36.10;;;;;;;2.70;100.00;95714.63;5119046;27;20023;-76
2023/02/22 00:45:38;;;;;;;37.13;32.05;;;;;;;2.63;100.00;95709.88;5117322;27;20024;-66
2023/02/22 00:48:05;;;;;;;39.60;30.67;;;;;;;2.63;100.00;95723.69;5122048;27;20145;-66
2023/02/22 00:50:31;;;;;;;35.88;29.52;;;;;;;2.73;100.00;95718.78;5116737;27;20027;-66
2023/02/22 00:52:58;;;;;;;27.95;23.45;;;;;;;2.95;100.00;95723.50;5117332;27;20030;-66
2023/02/22 00:55:26;;;;;;;25.60;21.00;;;;;;;3.09;100.00;95716.59;5115755;27;20120;-67
2023/02/22 00:57:53;;;;;;;24.15;20.05;;;;;;;3.02;100.00;95718.78;5117969;27;20031;-66
2023/02/22 01:00:25;;;;;;;22.95;20.42;;;;;;;2.95;100.00;95730.47;5117233;27;20030;-67
2023/02/22 01:02:50;;;;;;;24.10;20.55;;;;;;;2.87;100.00;95728.31;5118801;27;20079;-64
2023/02/22 01:05:19;;;;;;;28.60;20.25;;;;;;;2.83;100.00;95726.84;5119807;27;20038;-65
2023/02/22 01:07:45;;;;;;;24.73;20.20;;;;;;;2.79;100.00;95730.56;5116080;27;20043;-65
2023/02/22 01:10:12;;;;;;;23.77;19.50;;;;;;;2.77;100.00;95733.28;5114312;27;20019;-65
2023/02/22 01:12:37;;;;;;;26.13;19.95;;;;;;;2.71;100.00;95728.44;5113796;27;20092;-65
2023/02/22 01:15:04;;;;;;;25.33;19.23;;;;;;;2.63;100.00;95735.88;5121565;27;20485;-65
2023/02/22 01:17:30;;;;;;;23.25;19.55;;;;;;;2.61;100.00;95725.53;5115256;27;20015;-65
2023/02/22 01:19:55;;;;;;;25.88;19.25;;;;;;;2.57;100.00;95727.50;5118465;27;20015;-67
2023/02/22 01:22:21;;;;;;;23.40;19.58;;;;;;;2.54;100.00;95727.69;5117121;27;20106;-60
2023/02/22 01:24:50;;;;;;;25.33;19.27;;;;;;;2.50;100.00;95721.00;5118748;27;20109;-69
2023/02/22 01:27:17;;;;;;;26.65;20.67;;;;;;;2.50;100.00;95721.00;5116519;27;20370;-69
2023/02/22 01:29:42;;;;;;;22.50;18.55;;;;;;;2.53;100.00;95722.59;5117581;27;20015;-70
2023/02/22 01:32:10;;;;;;;24.15;16.83;;;;;;;2.52;100.00;95713.94;5119097;27;20116;-69
2023/02/22 01:34:36;;;;;;;21.08;16.33;;;;;;;2.49;100.00;95716.72;5112919;27;20458;-69
2023/02/22 01:37:01;;;;;;;22.92;18.02;;;;;;;2.44;100.00;95716.16;5099151;28;20039;-69
2023/02/22 01:39:27;;;;;;;20.42;16.08;;;;;;;2.41;100.00;95711.97;5097776;28;20024;-66
2023/02/22 01:41:53;;;;;;;19.23;15.68;;;;;;;2.36;100.00;95708.00;5101833;28;20023;-67
2023/02/22 01:44:28;;;;;;;21.52;15.52;;;;;;;2.33;100.00;95709.00;5092852;28;20401;-66
2023/02/22 01:46:55;;;;;;;22.42;16.52;;;;;;;2.32;100.00;95702.13;5095237;28;20443;-69
2023/02/22 01:49:23;;;;;;;16.98;14.95;;;;;;;2.31;100.00;95707.41;5095612;28;20020;-68
2023/02/22 01:51:51;;;;;;;19.05;15.82;;;;;;;2.26;100.00;95695.53;5099981;28;20019;-68
2023/02/22 01:54:38;;;;;;;18.05;14.07;;;;;;;2.27;100.00;95696.38;5096180;28;20068;-68
2023/02/22 01:57:28;;;;;;;18.10;14.55;;;;;;;2.24;100.00;95700.00;5095925;28;20135;-67
2023/02/22 01:59:57;;;;;;;19.42;14.65;;;;;;;2.19;100.00;95695.97;5097328;28;20036;-73
2023/02/22 02:02:24;;;;;;;19.83;15.05;;;;;;;2.17;100.00;95692.66;5095682;28;20024;-61
2023/02/22 02:04:51;;;;;;;15.55;13.90;;;;;;;2.16;100.00;95691.81;5093341;28;20028;-61
2023/02/22 02:07:20;;;;;;;15.45;13.77;;;;;;;2.13;100.00;95685.03;5096899;28;20346;-61
2023/02/22 02:09:57;;;;;;;17.95;13.65;;;;;;;2.14;100.00;95684.09;5096928;28;20035;-60
2023/02/22 02:12:23;;;;;;;16.85;12.95;;;;;;;2.13;100.00;95686.81;5097985;28;20101;-60
2023/02/22 02:14:49;;;;;;;16.70;13.13;;;;;;;2.09;100.00;95688.75;5097334;28;20020;-60
2023/02/22 02:17:17;;;;;;;14.57;12.63;;;;;;;2.12;100.00;95674.75;5097177;28;20023;-60
2023/02/22 02:20:10;;;;;;;16.17;12.88;;;;;;;2.12;100.00;95674.75;5094810;28;20519;-70
2023/02/22 02:23:05;;;;;;;15.73;12.73;;;;;;;2.12;100.00;95679.94;5099285;28;20041;-63
2023/02/22 02:25:53;;;;;;;14.20;12.38;;;;;;;2.13;100.00;95682.44;5081524;28;20035;-63
2023/02/22 02:28:55;;;;;;;16.17;11.88;;;;;;;2.16;100.00;95676.25;5093406;28;20023;-63
2023/02/22 02:31:36;;;;;;;15.30;10.95;;;;;;;2.12;100.00;95677.34;5094934;28;20077;-63
2023/02/22 02:34:09;;;;;;;11.00;9.90;;;;;;;2.14;100.00;95678.09;5097043;28;20036;-63
2023/02/22 02:37:04;;;;;;;12.35;11.20;;;;;;;2.19;100.00;95681.25;5097750;28;20026;-63
2023/02/22 02:39:51;;;;;;;11.50;10.30;;;;;;;2.25;100.00;95680.88;5096100;28;20034;-66
2023/02/22 02:42:22;;;;;;;12.23;10.95;;;;;;;2.25;100.00;95678.28;5095032;28;20289;-67
2023/02/22 02:45:01;;;;;;;15.30;13.70;;;;;;;2.22;100.00;95685.44;5099514;28;20015;-67
2023/02/22 02:47:31;;;;;;;19.92;16.92;;;;;;;2.14;100.00;95673.72;5093161;28;20023;-67
2023/02/22 02:50:06;;;;;;;14.57;12.98;;;;;;;2.08;100.00;95683.63;5095414;28;20034;-67
2023/02/22 02:52:34;;;;;;;13.38;11.75;;;;;;;2.08;100.00;95686.22;5096879;28;20019;-67
2023/02/22 02:55:03;;;;;;;13.82;11.70;;;;;;;2.05;100.00;95686.41;5096872;28;20028;-68
2023/02/22 02:57:29;;;;;;;12.07;11.02;;;;;;;2.04;100.00;95682.13;5096110;28;20024;-68
2023/02/22 02:59:54;;;;;;;13.75;9.60;;;;;;;2.02;100.00;95690.03;5096615;28;20490;-77
2023/02/22 03:02:38;;;;;;;11.18;10.02;;;;;;;2.02;100.00;95689.19;5094076;28;20039;-77
2023/02/22 03:05:35;;;;;;;10.65;9.68;;;;;;;1.95;100.00;95689.56;5095088;28;20035;-76
2023/02/22 03:08:45;;;;;;;12.13;10.18;;;;;;;1.91;100.00;95690.66;5094146;28;20058;-76
2023/02/22 03:11:17;;;;;;;13.63;10.75;;;;;;;1.86;100.00;95684.88;5077744;28;20493;-76
2023/02/22 03:14:16;;;;;;;16.15;14.68;;;;;;;1.92;100.00;95684.53;5094844;28;20024;-75
2023/02/22 03:17:17;;;;;;;14.10;12.80;;;;;;;1.92;100.00;95683.69;5096564;28;20031;-75
2023/02/22 03:19:43;;;;;;;14.52;11.88;;;;;;;1.81;100.00;95673.94;5072894;28;20398;-68
2023/02/22 03:22:16;;;;;;;13.85;11.85;;;;;;;1.76;100.00;95669.00;5091964;28;20041;-68
2023/02/22 03:24:51;;;;;;;13.40;11.43;;;;;;;1.73;100.00;95666.56;5094976;28;20024;-68
2023/02/22 03:27:23;;;;;;;16.02;11.52;;;;;;;1.73;100.00;95676.97;5095767;28;20493;-68
2023/02/22 03:29:53;;;;;;;12.32;11.13;;;;;;;1.70;100.00;95664.16;5097189;28;20096;-68
2023/02/22 03:32:27;;;;;;;12.35;11.13;;;;;;;1.67;100.00;95669.53;5093832;28;20521;-68
2023/02/22 03:35:01;;;;;;;11.57;10.48;;;;;;;1.66;100.00;95667.88;5095902;28;20130;-68
2023/02/22 03:37:36;;;;;;;11.68;10.48;;;;;;;1.66;100.00;95668.72;5094865;28;20019;-68
2023/02/22 03:40:14;;;;;;;12.25;10.45;;;;;;;1.70;100.00;95669.34;5099102;28;20398;-61
2023/02/22 03:42:46;;;;;;;11.63;10.43;;;;;;;1.62;100.00;95672.38;5094014;28;20027;-61
2023/02/22 03:45:16;;;;;;;11.80;10.70;;;;;;;1.61;100.00;95670.72;5097416;28;20618;-61
2023/02/22 03:47:55;;;;;;;12.55;10.10;;;;;;;1.61;100.00;95669.88;5092815;28;20032;-60
2023/02/22 03:50:39;;;;;;;9.95;8.95;;;;;;;1.60;100.00;95674.22;5095065;28;20458;-61
2023/02/22 03:53:06;;;;;;;10.32;9.32;;;;;;;1.57;100.00;95667.47;5094287;28;20079;-61
2023/02/22 03:55:32;;;;;;;10.27;9.38;;;;;;;1.54;100.00;95669.41;5096674;28;20024;-76
2023/02/22 03:58:02;;;;;;;9.45;8.60;;;;;;;1.53;100.00;95672.91;5095139;28;20540;-66
2023/02/22 04:00:30;;;;;;;11.10;8.95;;;;;;;1.53;100.00;95678.94;5095520;28;20024;-66
2023/02/22 04:02:58;;;;;;;10.88;9.57;;;;;;;1.45;100.00;95678.53;5098597;28;20024;-66
2023/02/22 04:05:23;;;;;;;10.07;9.07;;;;;;;1.45;100.00;95683.72;5100217;28;20112;-66
2023/02/22 04:07:54;;;;;;;10.07;9.07;;;;;;;1.45;100.00;95685.50;5093990;28;20478;-66
2023/02/22 04:10:21;;;;;;;11.35;10.25;;;;;;;1.41;100.00;95696.03;5095171;28;20457;-66
2023/02/22 04:12:47;;;;;;;11.13;10.00;;;;;;;1.45;100.00;95685.50;5096700;28;20591;-66
2023/02/22 04:15:19;;;;;;;10.85;9.85;;;;;;;1.47;100.00;95688.84;5101569;28;20028;-68
2023/02/22 04:17:44;;;;;;;12.20;9.65;;;;;;;1.47;100.00;95689.66;5098131;28;20034;-64
2023/02/22 04:20:12;;;;;;;11.18;9.93;;;;;;;1.43;100.00;95688.97;5098366;28;20099;-63
2023/02/22 04:22:38;;;;;;;12.23;10.75;;;;;;;1.45;100.00;95686.31;5098900;28;20047;-63
2023/02/22 04:25:04;;;;;;;15.07;10.25;;;;;;;1.46;100.00;95679.38;5096806;28;20142;-63
2023/02/22 04:27:30;;;;;;;11.07;9.98;;;;;;;1.43;100.00;95688.97;5099618;28;20028;-64
2023/02/22 04:29:55;;;;;;;11.02;9.65;;;;;;;1.41;100.00;95685.66;5101062;28;20038;-63
2023/02/22 04:32:20;;;;;;;11.95;10.82;;;;;;;1.39;100.00;95682.31;5100209;28;20292;-68
2023/02/22 04:34:46;;;;;;;11.57;10.55;;;;;;;1.38;100.00;95691.00;5106723;27;20054;-66
2023/02/22 04:37:11;;;;;;;16.00;13.07;;;;;;;1.39;100.00;95687.50;5119946;27;20039;-63
2023/02/22 04:39:37;;;;;;;13.25;11.82;;;;;;;1.44;100.00;95692.44;5119459;27;20493;-63
2023/02/22 04:42:03;;;;;;;12.23;10.95;;;;;;;1.53;100.00;95688.50;5112119;27;20046;-63
2023/02/22 04:44:29;;;;;;;13.05;11.75;;;;;;;1.53;100.00;95689.31;5098454;27;20428;-63
2023/02/22 04:46:55;;;;;;;14.32;12.15;;;;;;;1.51;100.00;95685.97;5112784;27;20030;-63
2023/02/22 04:49:20;;;;;;;12.50;11.20;;;;;;;1.47;100.00;95688.84;5110063;27;20023;-63
2023/02/22 04:51:46;;;;;;;17.42;12.52;;;;;;;1.45;100.00;95682.91;5111839;27;20034;-69
2023/02/22 04:54:12;;;;;;;13.05;11.75;;;;;;;1.49;100.00;95687.00;5113443;27;20031;-69
2023/02/22 04:56:38;;;;;;;14.10;11.15;;;;;;;1.47;100.00;95683.66;5112874;27;20020;-69
2023/02/22 04:59:03;;;;;;;13.43;11.85;;;;;;;1.43;100.00;95677.78;5111285;27;20026;-69
2023/02/22 05:01:32;;;;;;;13.40;11.68;;;;;;;1.41;100.00;95679.63;5112801;27;21825;-68
2023/02/22 05:03:58;;;;;;;13.07;11.88;;;;;;;1.36;100.00;95669.50;5090856;28;20425;-68
2023/02/22 05:06:24;;;;;;;13.55;12.25;;;;;;;1.37;100.00;95672.94;5111132;27;20015;-68
2023/02/22 05:08:49;;;;;;;13.95;12.23;;;;;;;1.39;100.00;95677.13;5113695;27;20399;-69
2023/02/22 05:11:14;;;;;;;13.82;12.40;;;;;;;1.45;100.00;95673.34;5113417;27;20378;-71
2023/02/22 05:13:41;;;;;;;16.27;13.48;;;;;;;1.48;100.00;95670.56;5114137;27;20032;-67
2023/02/22 05:16:06;;;;;;;16.75;13.98;;;;;;;1.47;100.00;95673.28;5111834;27;20531;-65
2023/02/22 05:18:31;;;;;;;14.35;12.95;;;;;;;1.46;100.00;95674.19;5114180;27;20027;-63
2023/02/22 05:20:57;;;;;;;14.05;12.77;;;;;;;1.44;100.00;95674.28;5113841;27;20597;-64
2023/02/22 05:23:22;;;;;;;15.90;14.05;;;;;;;1.40;100.00;95678.78;5112547;27;20502;-64
2023/02/22 05:25:47;;;;;;;13.40;12.07;;;;;;;1.37;100.00;95680.72;5112141;27;20602;-64
2023/02/22 05:28:14;;;;;;;14.88;13.35;;;;;;;1.32;100.00;95680.13;5111093;27;20023;-63
2023/02/22 05:30:39;;;;;;;15.55;13.50;;;;;;;1.33;100.00;95682.66;5113461;27;20019;-60
2023/02/22 05:33:05;;;;;;;18.23;14.00;;;;;;;1.33;100.00;95685.25;5110637;27;20023;-62
2023/02/22 05:35:31;;;;;;;16.42;14.40;;;;;;;1.39;100.00;95697.88;5108433;27;20126;-61
2023/02/22 05:37:58;;;;;;;16.40;14.68;;;;;;;1.36;100.00;95695.44;5107452;28;20140;-62
2023/02/22 05:40:25;;;;;;;15.93;13.82;;;;;;;1.39;100.00;95704.84;5108896;27;20027;-60
2023/02/22 05:42:52;;;;;;;17.73;13.73;;;;;;;1.33;100.00;95703.41;5107907;27;20022;-61
2023/02/22 05:45:20;;;;;;;14.50;12.85;;;;;;;1.36;100.00;95700.63;5110769;27;20027;-62
2023/02/22 05:47:46;;;;;;;16.10;13.07;;;;;;;1.27;100.00;95701.97;5110934;27;20561;-61
2023/02/22 05:50:12;;;;;;;15.15;13.55;;;;;;;1.26;100.00;95699.50;5112715;27;20024;-61
2023/02/22 05:52:38;;;;;;;18.85;14.60;;;;;;;1.26;100.00;95696.91;5111319;27;20035;-61
2023/02/22 05:55:04;;;;;;;18.50;15.48;;;;;;;1.28;100.00;95700.25;5112380;27;20059;-71
2023/02/22 05:57:30;;;;;;;19.80;15.98;;;;;;;1.26;100.00;95696.91;5113323;27;20023;-71
2023/02/22 05:59:55;;;;;;;19.92;17.38;;;;;;;1.26;100.00;95694.31;5111251;27;20024;-70
2023/02/22 06:02:21;;;;;;;21.65;15.95;;;;;;;1.31;100.00;95689.69;5113136;27;20591;-70
2023/02/22 06:04:46;;;;;;;17.65;15.60;;;;;;;1.26;100.00;95684.75;5107607;27;20038;-70
2023/02/22 06:07:13;;;;;;;18.52;16.63;;;;;;;1.18;100.00;95686.09;5092550;27;20023;-70
2023/02/22 06:09:39;;;;;;;16.35;14.60;;;;;;;1.09;100.00;95684.81;5112721;27;20144;-61
2023/02/22 06:12:05;;;;;;;17.55;15.77;;;;;;;1.08;100.00;95683.16;5111287;27;20497;-64
2023/02/22 06:14:30;;;;;;;17.60;15.43;;;;;;;1.10;100.00;95681.31;5113557;27;20027;-63
2023/02/22 06:16:57;;;;;;;21.88;15.90;;;;;;;1.12;100.00;95688.09;5110247;27;20034;-62
2023/02/22 06:19:23;;;;;;;18.85;16.92;;;;;;;1.16;100.00;95690.53;5112746;27;20038;-62
2023/02/22 06:22:01;;;;;;;21.95;16.88;;;;;;;1.16;100.00;95682.75;5112407;27;20031;-63
2023/02/22 06:24:27;;;;;;;21.77;17.08;;;;;;;1.14;100.00;95685.44;5112156;27;20015;-62
2023/02/22 06:26:57;;;;;;;16.88;15.18;;;;;;;1.14;100.00;95688.03;5108644;27;20028;-62
2023/02/22 06:29:24;;;;;;;19.20;15.68;;;;;;;1.16;100.00;95695.72;5094257;27;20153;-74
2023/02/22 06:31:50;;;;;;;20.92;17.20;;;;;;;1.23;100.00;95691.88;5109751;27;20459;-64
2023/02/22 06:34:16;;;;;;;27.50;22.55;;;;;;;1.26;100.00;95692.53;5112046;27;20130;-65
2023/02/22 06:36:41;;;;;;;21.17;18.17;;;;;;;1.36;100.00;95699.81;5111478;27;20037;-64
2023/02/22 06:39:09;;;;;;;20.42;17.02;;;;;;;1.35;100.00;95700.75;5108730;27;20094;-64
2023/02/22 06:41:39;;;;;;;20.55;18.40;;;;;;;1.38;100.00;95705.75;5091748;27;20031;-64
2023/02/22 06:44:04;;;;;;;23.30;20.88;;;;;;;1.41;100.00;95713.38;5108712;27;20035;-65
2023/02/22 06:46:30;;;;;;;24.60;19.48;;;;;;;1.46;100.00;95718.31;5109660;27;20018;-64
2023/02/22 06:48:58;;;;;;;21.02;19.02;;;;;;;1.52;100.00;95715.38;5110183;27;20024;-63
2023/02/22 06:51:27;;;;;;;21.05;19.02;;;;;;;1.58;100.00;95715.00;5110588;27;20024;-60
2023/02/22 06:53:52;;;;;;;20.35;18.08;;;;;;;1.58;100.00;95725.38;5106794;27;20024;-60
2023/02/22 06:56:18;;;;;;;18.77;16.80;;;;;;;1.64;100.00;95719.03;5089864;27;20500;-61
2023/02/22 06:58:44;;;;;;;18.35;16.55;;;;;;;1.76;100.00;95725.28;5107413;27;20587;-60
2023/02/22 07:01:10;;;;;;;17.88;16.17;;;;;;;1.90;100.00;95722.75;5109463;27;20065;-61
2023/02/22 07:03:36;;;;;;;26.48;23.80;;;;;;;2.00;100.00;95729.06;5110906;27;20553;-61
2023/02/22 07:06:03;;;;;;;25.95;23.10;;;;;;;2.00;100.00;95733.44;5092108;28;20156;-61
2023/02/22 07:08:28;;;;;;;23.88;21.30;;;;;;;2.07;100.00;95736.50;5109730;27;20500;-60
2023/02/22 07:10:54;;;;;;;21.60;19.38;;;;;;;2.15;100.00;95740.31;5108109;27;20016;-64
2023/02/22 07:13:19;;;;;;;26.85;20.65;;;;;;;2.26;100.00;95739.69;5090206;27;20024;-63
2023/02/22 07:15:45;;;;;;;25.55;21.52;;;;;;;2.39;100.00;95744.19;5089109;28;20049;-64
2023/02/22 07:18:11;;;;;;;27.08;19.42;;;;;;;2.47;100.00;95736.78;5108287;28;20996;-63
2023/02/22 07:20:36;;;;;;;27.52;19.25;;;;;;;2.53;100.00;95739.00;5107546;28;20461;-65
2023/02/22 07:23:02;;;;;;;22.77;20.10;;;;;;;2.63;100.00;95739.28;5111222;28;20046;-62
2023/02/22 07:25:27;;;;;;;21.73;18.45;;;;;;;2.79;100.00;95747.03;5106547;28;20027;-63
2023/02/22 07:27:53;;;;;;;24.63;20.88;;;;;;;2.89;100.00;95741.25;5107008;27;20111;-63
2023/02/22 07:30:24;;;;;;;29.30;20.80;;;;;;;2.92;100.00;95744.50;5105243;27;20153;-60
2023/02/22 07:32:51;;;;;;;21.30;19.00;;;;;;;3.03;100.00;95737.81;5106236;28;20024;-59
2023/02/22 07:35:23;;;;;;;22.55;18.20;;;;;;;3.13;100.00;95741.53;5098827;28;20048;-60
2023/02/22 07:37:49;;;;;;;20.20;18.05;;;;;;;3.25;100.00;95742.53;5090378;28;20024;-62
2023/02/22 07:40:17;;;;;;;22.30;17.35;;;;;;;3.34;100.00;95741.94;5093045;28;20020;-61
2023/02/22 07:43:00;;;;;;;18.92;16.92;;;;;;;3.43;100.00;95741.38;5085638;28;20028;-61
2023/02/22 07:45:29;;;;;;;21.40;16.83;;;;;;;3.57;100.00;95744.84;5089331;28;20501;-61
2023/02/22 07:47:55;;;;;;;23.15;16.05;;;;;;;3.70;100.00;95743.16;5086263;28;20020;-60
2023/02/22 07:50:21;;;;;;;21.88;16.77;;;;;;;3.80;100.00;95737.34;5093005;28;20020;-63
2023/02/22 07:52:49;;;;;;;27.00;20.77;;;;;;;3.84;100.00;95737.06;5087423;28;20076;-63
2023/02/22 07:55:17;;;;;;;31.55;28.27;;;;;;;3.94;100.00;95737.28;5088369;28;20039;-65
2023/02/22 07:57:44;;;;;;;35.42;29.88;;;;;;;3.97;100.00;95724.06;5099415;28;20031;-63
2023/02/22 08:00:13;;;;;;;31.23;27.83;;;;;;;4.03;100.00;95730.66;5090934;28;20097;-63
2023/02/22 08:02:40;;;;;;;31.13;27.35;;;;;;;4.13;100.00;95729.09;5092144;28;20036;-63
2023/02/22 08:05:06;;;;;;;28.58;25.55;;;;;;;4.17;100.00;95732.34;5077823;28;20028;-68
2023/02/22 08:07:31;;;;;;;28.45;25.63;;;;;;;4.26;100.00;95725.69;5095307;28;20066;-69
2023/02/22 08:09:56;;;;;;;30.95;26.52;;;;;;;4.38;100.00;95721.44;5091715;28;20048;-70
2023/02/22 08:12:22;;;;;;;27.05;24.42;;;;;;;4.48;100.00;95727.69;5093770;28;20028;-70
2023/02/22 08:14:47;;;;;;;24.92;22.33;;;;;;;4.65;100.00;95725.72;5092084;28;20020;-70
2023/02/22 08:17:12;;;;;;;27.05;21.95;;;;;;;4.73;100.00;95726.84;5093047;28;20024;-69
2023/02/22 08:19:38;;;;;;;22.60;20.30;;;;;;;4.84;100.00;95728.72;5082123;28;20402;-69
2023/02/22 08:22:03;;;;;;;21.70;19.33;;;;;;;5.02;100.00;95736.22;5097715;28;20050;-70
2023/02/22 08:24:29;;;;;;;18.48;15.95;;;;;;;5.09;100.00;95729.63;5092911;28;20069;-70
2023/02/22 08:26:54;;;;;;;19.40;13.98;;;;;;;5.35;100.00;95745.22;5091503;28;20024;-73
2023/02/22 08:29:21;;;;;;;14.27;12.82;;;;;;;5.62;100.00;95757.25;5096994;28;20032;-61
2023/02/22 08:31:52;;;;;;;27.15;18.33;;;;;;;5.80;100.00;95752.50;5085526;28;20028;-61
2023/02/22 08:34:18;;;;;;;24.80;20.15;;;;;;;5.63;100.00;95748.47;5090767;27;20020;-61
2023/02/22 08:36:43;;;;;;;22.63;16.38;;;;;;;5.56;100.00;95748.13;5110816;27;20039;-60
2023/02/22 08:39:09;;;;;;;19.00;16.63;;;;;;;5.65;100.00;95749.22;5112347;27;20034;-61
2023/02/22 08:41:34;;;;;;;19.33;17.42;;;;;;;5.67;100.00;95744.72;5095712;27;20091;-60
2023/02/22 08:44:01;;;;;;;26.08;19.15;;;;;;;5.74;100.00;95742.50;5114285;27;20027;-68
2023/02/22 08:46:26;;;;;;;27.38;17.83;;;;;;;5.84;100.00;95738.28;5115080;27;20019;-69
2023/02/22 08:48:52;;;;;;;28.80;21.00;;;;;;;5.85;100.00;95739.09;5095730;28;20065;-72
2023/02/22 08:51:18;;;;;;;25.35;22.45;;;;;;;5.90;100.00;95737.00;5115794;27;20098;-72
2023/02/22 08:53:43;;;;;;;22.67;20.38;;;;;;;5.91;100.00;95733.44;5110963;27;20497;-73
2023/02/22 08:56:09;;;;;;;22.60;20.38;;;;;;;5.93;100.00;95739.38;5114308;27;20030;-73
2023/02/22 08:58:35;;;;;;;21.75;17.92;;;;;;;6.01;100.00;95742.28;5113954;27;20015;-71
2023/02/22 09:01:00;;;;;;;21.08;17.25;;;;;;;6.07;100.00;95746.25;5114001;27;20509;-72
2023/02/22 09:03:25;;;;;;;22.20;17.50;;;;;;;6.04;100.00;95749.09;5113754;27;20047;-65
2023/02/22 09:05:51;;;;;;;20.55;16.63;;;;;;;6.09;100.00;95749.59;5094512;28;20073;-61
2023/02/22 09:08:16;;;;;;;22.08;19.73;;;;;;;6.11;100.00;95749.47;5114811;27;20038;-68
2023/02/22 09:10:44;;;;;;;24.25;19.35;;;;;;;6.19;100.00;95747.13;5112522;27;20382;-69
2023/02/22 09:13:10;;;;;;;24.40;19.20;;;;;;;6.37;100.00;95751.94;5112319;27;20028;-69
2023/02/22 09:15:35;;;;;;;19.30;16.95;;;;;;;6.67;100.00;95753.19;5114721;27;20027;-69
2023/02/22 09:18:01;;;;;;;20.55;17.30;;;;;;;6.82;99.50;95745.94;5112734;27;20031;-69
2023/02/22 09:20:27;;;;;;;19.63;17.38;;;;;;;6.76;98.92;95744.66;5129555;27;20027;-70
2023/02/22 09:22:54;;;;;;;26.73;19.55;;;;;;;6.78;99.11;95744.53;5112632;27;20438;-63
2023/02/22 09:25:20;;;;;;;29.67;23.00;;;;;;;7.14;96.63;95740.84;5114307;27;20091;-71
2023/02/22 09:27:47;;;;;;;27.63;24.33;;;;;;;7.09;96.38;95739.56;5094250;28;20036;-72
2023/02/22 09:30:30;;;;;;;24.45;21.88;;;;;;;7.06;97.21;95743.25;5094927;27;20026;-71
2023/02/22 09:32:58;;;;;;;26.20;21.65;;;;;;;7.10;98.08;95742.03;5111853;27;20020;-72
2023/02/22 09:35:25;;;;;;;29.50;21.55;;;;;;;7.15;97.98;95739.91;5111910;27;20046;-72
2023/02/22 09:37:52;;;;;;;28.80;21.02;;;;;;;7.24;98.47;95742.75;5111633;27;20077;-72
2023/02/22 09:40:23;;;;;;;28.17;22.65;;;;;;;7.30;97.22;95739.66;5113068;27;20024;-72
2023/02/22 09:43:10;;;;;;;24.02;21.48;;;;;;;7.35;97.81;95740.13;5095088;28;20015;-61
2023/02/22 09:46:20;;;;;;;28.00;22.20;;;;;;;7.62;97.07;95749.38;5113174;27;20028;-61
2023/02/22 09:49:04;;;;;;;38.28;23.67;;;;;;;7.59;96.77;95741.75;5089931;27;20043;-60
2023/02/22 09:51:48;;;;;;;29.00;25.95;;;;;;;7.49;98.36;95735.59;5112933;27;20040;-61
2023/02/22 09:54:21;;;;;;;29.98;26.67;;;;;;;7.49;98.64;95743.44;5108671;27;20169;-61
2023/02/22 09:56:50;;;;;;;29.98;25.63;;;;;;;7.39;99.67;95736.31;5089425;28;20028;-62
2023/02/22 09:59:23;;;;;;;31.98;27.85;;;;;;;7.51;100.00;95736.31;5112697;27;20020;-61
2023/02/22 10:01:58;;;;;;;30.73;27.17;;;;;;;7.51;98.18;95733.69;5110784;27;20024;-62
2023/02/22 10:04:41;;;;;;;30.90;27.60;;;;;;;7.41;99.95;95733.56;5112518;27;20400;-65
2023/02/22 10:07:42;;;;;;;30.25;27.15;;;;;;;7.55;99.40;95741.19;5108658;27;20031;-65
2023/02/22 10:10:16;;;;;;;30.48;26.50;;;;;;;7.73;99.01;95748.50;5065811;28;20553;-65
2023/02/22 10:12:54;;;;;;;30.05;26.88;;;;;;;7.82;97.03;95739.91;5111666;27;20031;-64
2023/02/22 10:15:39;;;;;;;30.17;27.20;;;;;;;7.67;97.42;95738.53;5110832;27;20346;-67
2023/02/22 10:18:26;;;;;;;31.55;26.77;;;;;;;7.95;95.44;95738.91;5111286;27;20035;-64
2023/02/22 10:21:14;;;;;;;30.58;27.33;;;;;;;7.79;97.96;95741.94;5109364;27;20024;-61
2023/02/22 10:23:45;;;;;;;30.73;27.33;;;;;;;7.86;98.22;95732.66;5110889;27;20445;-64
2023/02/22 10:26:11;;;;;;;31.60;27.60;;;;;;;7.96;98.25;95738.00;5094463;28;20027;-64
2023/02/22 10:28:42;;;;;;;31.92;27.25;;;;;;;8.09;96.55;95737.81;5107187;27;20412;-64
2023/02/22 10:31:15;;;;;;;30.40;27.15;;;;;;;8.36;95.41;95745.19;5111868;27;20016;-64
2023/02/22 10:33:45;;;;;;;27.92;24.73;;;;;;;8.54;93.12;95740.25;5111063;27;20035;-64
2023/02/22 10:36:19;;;;;;;31.60;25.40;;;;;;;8.46;93.90;95740.00;5111603;27;20066;-64
2023/02/22 10:38:54;;;;;;;28.30;25.35;;;;;;;8.69;92.09;95737.28;5107672;27;20031;-61
2023/02/22 10:41:27;;;;;;;30.30;27.00;;;;;;;8.44;92.86;95736.69;5091951;27;20019;-62
2023/02/22 10:43:53;;;;;;;30.73;27.60;;;;;;;8.42;91.63;95735.97;5111839;27;20032;-69
2023/02/22 10:46:21;;;;;;;30.00;26.52;;;;;;;8.26;91.88;95736.44;5110705;27;20046;-68
2023/02/22 10:48:50;;;;;;;28.65;25.40;;;;;;;8.00;94.18;95731.53;5110273;27;20039;-69
2023/02/22 10:51:16;;;;;;;31.00;26.73;;;;;;;8.01;94.30;95731.38;5109746;27;20027;-68
2023/02/22 10:53:41;;;;;;;29.33;26.38;;;;;;;8.06;95.22;95736.25;5109858;27;20034;-68
2023/02/22 10:56:22;;;;;;;30.10;26.92;;;;;;;8.15;96.16;95732.88;5112197;27;20111;-68
2023/02/22 10:58:54;;;;;;;31.50;27.85;;;;;;;8.28;96.43;95727.44;5109342;28;20019;-64
2023/02/22 11:01:30;;;;;;;35.50;29.55;;;;;;;8.35;96.91;95727.78;5111565;27;20030;-63
2023/02/22 11:04:15;;;;;;;33.33;29.85;;;;;;;8.17;98.78;95720.47;5109159;27;20494;-64
2023/02/22 11:06:47;;;;;;;33.83;30.10;;;;;;;8.28;100.00;95722.22;5111191;27;20137;-64
2023/02/22 11:09:21;;;;;;;34.38;30.98;;;;;;;8.41;98.81;95713.31;5110761;27;20027;-64
2023/02/22 11:11:47;;;;;;;32.47;29.13;;;;;;;8.45;98.17;95709.47;5108648;28;20020;-64
2023/02/22 11:14:25;;;;;;;33.70;28.60;;;;;;;8.53;98.53;95707.09;5111741;27;20102;-64
2023/02/22 11:16:56;;;;;;;36.35;30.20;;;;;;;8.53;97.50;95708.88;5085931;28;20084;-64
2023/02/22 11:19:27;;;;;;;32.33;29.05;;;;;;;8.51;97.50;95706.41;5108212;27;20030;-64
2023/02/22 11:22:08;;;;;;;32.33;27.27;;;;;;;8.94;93.30;95707.16;5107125;28;20059;-72
2023/02/22 11:24:49;;;;;;;29.70;26.52;;;;;;;8.93;93.92;95707.28;5112183;27;20453;-72
2023/02/22 11:27:45;;;;;;;34.78;31.10;;;;;;;8.80;93.89;95707.50;5109502;27;20031;-72
2023/02/22 11:30:13;;;;;;;;;;;;;;;8.78;94.52;95709.44;5101072;27;20035;-71
2023/02/22 11:32:48;;;;;;;33.03;29.33;;;;;;;8.64;95.27;95702.72;5110362;27;19912;-73